Time;durP1;ratioP1;P1;durP2;ratioP2;P2;SDS_P1;SDS_P2;PMS_P1;PMS_P2;Temp;Humidity;BMP_temperature;BMP_pressure;BME280_temperature;BME280_humidity;BME280_pressure;Samples;Min_cycle;Max_cycle;Signal;HPM_P1;HPM_P2
2022/11/09 00:02:05;;;;;;;48.33;15.90;;;;;;;;;;5109292;27;20479;-74
2022/11/09 00:04:30;;;;;;;59.97;16.07;;;;;;;;;;5110503;27;20462;-73
2022/11/09 00:06:56;;;;;;;57.50;16.43;;;;;;;;;;5106687;27;20400;-73
2022/11/09 00:09:21;;;;;;;88.70;16.53;;;;;;;;;;5098650;27;20019;-73
2022/11/09 00:11:46;;;;;;;72.60;15.80;;;;;;;5.92;nan;101154.81;5106068;27;20286;-73
2022/11/09 00:14:12;;;;;;;62.53;16.70;;;;;;;;;;5109565;27;20126;-72
2022/11/09 00:16:38;;;;;;;69.85;16.60;;;;;;;;;;5109717;27;20051;-72
2022/11/09 00:19:03;;;;;;;82.37;16.23;;;;;;;;;;5107103;27;20058;-73
2022/11/09 00:21:28;;;;;;;74.07;16.27;;;;;;;;;;5093444;27;20149;-73
2022/11/09 00:23:53;;;;;;;77.95;17.13;;;;;;;;;;5111203;27;20019;-73
2022/11/09 00:26:19;;;;;;;62.63;15.57;;;;;;;;;;5107370;27;20039;-72
2022/11/09 00:28:44;;;;;;;77.03;16.52;;;;;;;;;;5106865;27;20276;-73
2022/11/09 00:31:12;;;;;;;84.53;18.08;;;;;;;;;;5112631;27;20026;-73
2022/11/09 00:33:37;;;;;;;102.80;18.75;;;;;;;;;;5091990;28;20027;-73
2022/11/09 00:36:06;;;;;;;80.22;18.33;;;;;;;;;;5104196;27;20106;-73
2022/11/09 00:38:33;;;;;;;76.82;18.92;;;;;;;;;;5105641;27;20094;-73
2022/11/09 00:41:02;;;;;;;50.72;17.55;;;;;;;;;;5112317;27;20079;-73
2022/11/09 00:43:27;;;;;;;78.15;17.58;;;;;;;;;;5087971;28;20031;-73
2022/11/09 00:45:52;;;;;;;92.57;17.00;;;;;;;;;;5112798;27;20027;-73
2022/11/09 00:48:18;;;;;;;70.40;17.17;;;;;;;;;;5107901;27;20312;-73
2022/11/09 00:50:47;;;;;;;64.83;16.17;;;;;;;;;;5111505;27;20278;-73
2022/11/09 00:53:12;;;;;;;62.22;15.85;;;;;;;;;;5104968;27;20332;-73
2022/11/09 00:55:38;;;;;;;59.97;15.20;;;;;;;;;;5115259;27;20015;-74
2022/11/09 00:58:03;;;;;;;79.47;15.57;;;;;;;;;;5093422;28;20162;-73
2022/11/09 01:00:28;;;;;;;57.67;15.20;;;;;;;;;;5093019;27;20275;-73
2022/11/09 01:02:54;;;;;;;75.28;14.70;;;;;;;;;;5108093;27;20027;-73
2022/11/09 01:05:19;;;;;;;47.97;14.63;;;;;;;;;;5090919;27;20011;-73
2022/11/09 01:07:44;;;;;;;82.68;14.95;;;;;;;;;;5106668;27;20237;-73
2022/11/09 01:10:09;;;;;;;84.07;14.75;;;;;;;;;;5113321;27;20073;-73
2022/11/09 01:12:35;;;;;;;65.93;14.17;;;;;;;;;;5086523;28;20056;-73
2022/11/09 01:15:00;;;;;;;56.97;15.63;;;;;;;;;;5090541;27;20296;-74
2022/11/09 01:17:26;;;;;;;68.95;14.55;;;;;;;;;;5105925;27;20026;-73
2022/11/09 01:19:51;;;;;;;64.30;14.38;;;;;;;;;;5110550;27;20034;-73
2022/11/09 01:22:17;;;;;;;69.33;14.80;;;;;;;;;;5090347;28;20032;-73
2022/11/09 01:24:43;;;;;;;89.45;14.80;;;;;;;;;;5101626;28;20277;-73
2022/11/09 01:27:08;;;;;;;72.78;13.93;;;;;;;;;;5108264;27;20022;-73
2022/11/09 01:29:33;;;;;;;64.97;14.20;;;;;;;;;;5108290;27;20023;-73
2022/11/09 01:31:59;;;;;;;67.40;15.20;;;;;;;;;;5104890;27;20279;-73
2022/11/09 01:34:26;;;;;;;78.90;14.17;;;;;;;;;;5106841;27;20263;-73
2022/11/09 01:36:51;;;;;;;75.30;14.48;;;;;;;;;;5111272;27;20337;-73
2022/11/09 01:39:18;;;;;;;81.35;14.35;;;;;;;;;;5090635;28;20020;-74
2022/11/09 01:41:43;;;;;;;66.90;13.68;;;;;;;;;;5103936;27;20034;-74
2022/11/09 01:44:08;;;;;;;77.50;16.30;;;;;;;;;;5090914;28;20031;-74
2022/11/09 01:46:54;;;;;;;86.80;13.83;;;;;;;;;;5103564;28;20015;-73
2022/11/09 01:49:23;;;;;;;104.07;14.38;;;;;;;;;;5102224;28;20276;-73
2022/11/09 01:51:51;;;;;;;93.28;14.45;;;;;;;;;;5110012;27;20030;-74
2022/11/09 01:54:18;;;;;;;52.30;13.80;;;;;;;;;;5111988;27;20015;-74
2022/11/09 01:56:44;;;;;;;76.03;15.80;;;;;;;;;;5092998;27;20384;-73
2022/11/09 01:59:17;;;;;;;56.53;14.95;;;;;;;;;;5101709;27;20020;-73
2022/11/09 02:01:43;;;;;;;60.83;14.30;;;;;;;;;;5101468;27;20473;-73
2022/11/09 02:04:11;;;;;;;51.40;13.70;;;;;;;;;;5106810;27;20046;-73
2022/11/09 02:06:36;;;;;;;59.65;14.73;;;;;;;;;;5105141;27;20024;-73
2022/11/09 02:09:08;;;;;;;75.78;15.10;;;;;;;;;;5091551;28;20090;-73
2022/11/09 02:11:35;;;;;;;65.75;14.60;;;;;;;;;;5085605;28;20027;-73
2022/11/09 02:14:01;;;;;;;52.45;15.27;;;;;;;;;;5111782;27;20062;-73
2022/11/09 02:16:26;;;;;;;52.72;14.15;;;;;;;;;;5100433;28;20032;-73
2022/11/09 02:18:56;;;;;;;72.65;15.48;;;;;;;;;;5106267;28;20016;-73
2022/11/09 02:21:22;;;;;;;61.17;14.75;;;;;;;;;;5094430;28;20114;-73
2022/11/09 02:23:48;;;;;;;78.68;15.98;;;;;;;;;;5106857;28;20023;-73
2022/11/09 02:26:24;;;;;;;76.57;15.75;;;;;;;;;;5099104;28;20470;-73
2022/11/09 02:28:50;;;;;;;51.95;14.82;;;;;;;;;;5110241;28;20026;-74
2022/11/09 02:31:16;;;;;;;65.57;15.02;;;;;;;;;;5104202;28;20024;-73
2022/11/09 02:33:55;;;;;;;89.32;16.45;;;;;;;;;;5104348;28;20540;-73
2022/11/09 02:36:21;;;;;;;58.13;15.85;;;;;;;;;;5110159;28;20050;-74
2022/11/09 02:38:47;;;;;;;63.03;14.57;;;;;;;;;;5105595;28;20084;-73
2022/11/09 02:41:13;;;;;;;75.82;16.83;;;;;;;;;;5093828;27;20032;-72
2022/11/09 02:43:39;;;;;;;68.25;15.48;;;;;;;;;;5103367;28;20464;-73
2022/11/09 02:46:04;;;;;;;62.70;16.35;;;;;;;;;;5104792;27;20442;-72
2022/11/09 02:48:29;;;;;;;69.87;15.93;;;;;;;;;;5115086;27;20028;-73
2022/11/09 02:50:55;;;;;;;70.23;16.73;;;;;;;;;;5106962;27;20080;-73
2022/11/09 02:53:20;;;;;;;61.97;17.40;;;;;;;;;;5095522;28;20272;-73
2022/11/09 02:55:45;;;;;;;70.23;17.20;;;;;;;;;;5105331;28;20324;-73
2022/11/09 02:58:10;;;;;;;81.80;17.37;;;;;;;;;;5106290;27;20280;-73
2022/11/09 03:00:36;;;;;;;45.47;15.52;;;;;;;;;;5096774;28;20028;-73
2022/11/09 03:03:01;;;;;;;53.17;16.23;;;;;;;;;;5092933;28;20472;-73
2022/11/09 03:05:27;;;;;;;92.78;16.33;;;;;;;;;;5092391;27;20268;-73
2022/11/09 03:07:52;;;;;;;70.30;16.20;;;;;;;;;;5109552;27;20034;-73
2022/11/09 03:10:17;;;;;;;57.20;16.33;;;;;;;;;;5107834;27;20020;-72
2022/11/09 03:12:42;;;;;;;62.40;15.93;;;;;;;;;;5111964;27;20058;-72
2022/11/09 03:15:08;;;;;;;83.40;15.93;;;;;;;;;;5108761;27;20646;-72
2022/11/09 03:17:34;;;;;;;66.05;14.32;;;;;;;;;;5096838;27;20410;-73
2022/11/09 03:19:59;;;;;;;59.25;15.95;;;;;;;;;;5094753;28;20019;-72
2022/11/09 03:22:24;;;;;;;50.58;14.85;;;;;;;;;;5114257;27;20030;-72
2022/11/09 03:24:50;;;;;;;40.92;15.02;;;;;;;;;;5106490;27;20394;-72
2022/11/09 03:27:15;;;;;;;58.80;16.50;;;;;;;;;;5110220;27;20015;-72
2022/11/09 03:29:40;;;;;;;40.78;13.57;;;;;;;;;;5104471;27;20336;-72
2022/11/09 03:32:06;;;;;;;50.07;14.63;;;;;;;;;;5092708;28;20027;-72
2022/11/09 03:34:31;;;;;;;51.67;15.65;;;;;;;;;;5084066;28;20031;-72
2022/11/09 03:36:56;;;;;;;55.70;14.43;;;;;;;;;;5114306;27;20015;-72
2022/11/09 03:39:22;;;;;;;56.00;14.47;;;;;;;;;;5101949;27;20635;-72
2022/11/09 03:41:47;;;;;;;45.00;15.02;;;;;;;;;;5101348;27;20283;-71
2022/11/09 03:44:13;;;;;;;47.90;14.77;;;;;;;;;;5098327;27;20024;-71
2022/11/09 03:46:38;;;;;;;58.38;15.85;;;;;;;;;;5088678;28;20024;-72
2022/11/09 03:49:03;;;;;;;57.63;16.03;;;;;;;;;;5098315;27;20016;-72
2022/11/09 03:51:28;;;;;;;49.57;16.17;;;;;;;;;;5103980;27;20023;-72
2022/11/09 03:53:54;;;;;;;82.37;16.43;;;;;;;;;;5084212;28;20115;-72
2022/11/09 03:56:19;;;;;;;42.28;16.35;;;;;;;;;;5103034;27;20457;-72
2022/11/09 03:58:44;;;;;;;46.27;16.27;;;;;;;;;;5101581;27;20482;-72
2022/11/09 04:01:09;;;;;;;44.70;15.77;;;;;;;;;;5109692;27;20498;-72
2022/11/09 04:03:35;;;;;;;40.03;16.10;;;;;;;;;;5097423;27;20273;-73
2022/11/09 04:06:00;;;;;;;50.25;16.88;;;;;;;;;;5109478;27;20444;-72
2022/11/09 04:08:26;;;;;;;58.50;19.27;;;;;;;;;;5097202;27;20016;-72
2022/11/09 04:10:51;;;;;;;57.55;18.17;;;;;;;;;;5101417;27;20034;-72
2022/11/09 04:13:16;;;;;;;89.93;18.17;;;;;;;;;;5110799;27;20101;-72
2022/11/09 04:15:42;;;;;;;65.93;18.80;;;;;;;;;;5086375;27;20023;-72
2022/11/09 04:18:10;;;;;;;72.53;20.75;;;;;;;;;;5097189;27;20360;-72
2022/11/09 04:20:35;;;;;;;66.78;19.00;;;;;;;;;;5088731;27;20019;-72
2022/11/09 04:23:02;;;;;;;84.63;19.80;;;;;;;;;;5082725;28;20034;-71
2022/11/09 04:25:30;;;;;;;60.13;19.13;;;;;;;;;;5083039;28;20032;-72
2022/11/09 04:27:56;;;;;;;74.95;19.70;;;;;;;;;;5106298;27;20016;-72
2022/11/09 04:30:21;;;;;;;71.32;19.20;;;;;;;;;;5091656;27;20015;-72
2022/11/09 04:32:47;;;;;;;58.97;19.40;;;;;;;;;;5088053;28;20034;-72
2022/11/09 04:35:12;;;;;;;63.47;20.20;;;;;;;;;;5108855;27;20113;-72
2022/11/09 04:37:37;;;;;;;68.73;18.67;;;;;;;;;;5108623;27;20260;-72
2022/11/09 04:40:03;;;;;;;59.90;19.53;;;;;;;;;;5107056;27;20274;-73
2022/11/09 04:42:28;;;;;;;61.58;18.33;;;;;;;;;;5102447;27;20298;-74
2022/11/09 04:44:53;;;;;;;67.40;19.03;;;;;;;;;;5101678;27;20081;-74
2022/11/09 04:47:18;;;;;;;64.67;18.47;;;;;;;;;;5092527;28;20754;-73
2022/11/09 04:49:43;;;;;;;65.23;19.60;;;;;;;;;;5111368;27;20122;-74
2022/11/09 04:52:09;;;;;;;57.17;19.77;;;;;;;;;;5098281;27;20397;-74
2022/11/09 04:54:34;;;;;;;77.30;19.87;;;;;;;;;;5111949;27;20081;-74
2022/11/09 04:56:59;;;;;;;54.30;18.90;;;;;;;;;;5103918;27;20080;-74
2022/11/09 04:59:24;;;;;;;51.70;19.97;;;;;;;;;;5092662;27;20279;-74
2022/11/09 05:01:50;;;;;;;56.90;18.63;;;;;;;;;;5101716;27;20284;-74
2022/11/09 05:04:15;;;;;;;58.93;18.90;;;;;;;;;;5106638;27;20383;-74
2022/11/09 05:06:40;;;;;;;81.73;20.13;;;;;;;;;;5089469;28;20031;-74
2022/11/09 05:09:06;;;;;;;60.83;19.63;;;;;;;;;;5089668;28;20031;-74
2022/11/09 05:11:32;;;;;;;51.20;17.98;;;;;;;;;;5090656;28;20031;-74
2022/11/09 05:13:58;;;;;;;58.05;18.48;;;;;;;;;;5088041;28;20044;-74
2022/11/09 05:16:23;;;;;;;57.60;17.77;;;;;;;;;;5090439;28;20024;-74
2022/11/09 05:18:49;;;;;;;57.55;17.15;;;;;;;;;;5109048;27;20786;-73
2022/11/09 05:21:14;;;;;;;44.38;17.55;;;;;;;;;;5108221;27;20030;-73
2022/11/09 05:23:57;;;;;;;56.75;17.48;;;;;;;;;;5110655;27;20052;-74
2022/11/09 05:26:23;;;;;;;57.90;17.67;;;;;;;;;;5104958;27;20027;-73
2022/11/09 05:28:48;;;;;;;46.78;16.75;;;;;;;;;;5105435;28;20526;-74
2022/11/09 05:31:13;;;;;;;47.13;16.87;;;;;;;;;;5108776;27;20024;-74
2022/11/09 05:33:39;;;;;;;52.40;18.10;;;;;;;6.35;nan;101055.72;5096344;27;20263;-73
2022/11/09 05:36:04;;;;;;;44.45;16.83;;;;;;;;;;5086325;28;20032;-74
2022/11/09 05:38:30;;;;;;;40.63;16.95;;;;;;;;;;5106807;27;20023;-74
2022/11/09 05:40:56;;;;;;;38.40;16.77;;;;;;;;;;5088764;28;20392;-74
2022/11/09 05:43:21;;;;;;;43.83;17.23;;;;;;;;;;5109926;27;20102;-74
2022/11/09 05:45:46;;;;;;;41.60;15.93;;;;;;;;;;5090799;28;20781;-74
2022/11/09 05:48:12;;;;;;;44.20;16.57;;;;;;;;;;5115231;27;20275;-74
2022/11/09 05:50:38;;;;;;;35.63;16.25;;;;;;;;;;5086362;28;20272;-74
2022/11/09 05:53:04;;;;;;;38.75;15.25;;;;;;;;;;5095259;27;20023;-74
2022/11/09 05:55:29;;;;;;;39.22;16.25;;;;;;;;;;5104632;27;20023;-74
2022/11/09 05:57:54;;;;;;;36.97;15.80;;;;;;;;;;5112337;27;20042;-74
2022/11/09 06:00:20;;;;;;;33.78;15.77;;;;;;;;;;5107315;27;20764;-74
2022/11/09 06:02:45;;;;;;;42.72;15.77;;;;;;;;;;5107842;27;20028;-74
2022/11/09 06:05:11;;;;;;;39.07;16.17;;;;;;;;;;5092142;28;20026;-74
2022/11/09 06:07:36;;;;;;;34.65;15.40;;;;;;;;;;5087560;28;20784;-74
2022/11/09 06:10:01;;;;;;;35.97;16.38;;;;;;;;;;5099676;28;20077;-75
2022/11/09 06:12:27;;;;;;;31.95;14.85;;;;;;;;;;5104160;28;20393;-74
2022/11/09 06:14:52;;;;;;;35.83;15.00;;;;;;;;;;5097665;28;20430;-74
2022/11/09 06:17:17;;;;;;;38.53;16.17;;;;;;;;;;5093958;28;20043;-75
2022/11/09 06:19:43;;;;;;;36.45;16.15;;;;;;;;;;5103142;28;20291;-76
2022/11/09 06:22:08;;;;;;;40.73;16.37;;;;;;;;;;5082962;28;20108;-75
2022/11/09 06:24:33;;;;;;;39.00;16.50;;;;;;;;;;5104891;28;20272;-75
2022/11/09 06:26:59;;;;;;;37.63;16.30;;;;;;;;;;5110181;28;20042;-75
2022/11/09 06:29:24;;;;;;;40.92;17.42;;;;;;;;;;5108315;28;20023;-75
2022/11/09 06:31:50;;;;;;;40.53;17.13;;;;;;;;;;5104332;28;20048;-75
2022/11/09 06:34:15;;;;;;;45.67;17.27;;;;;;;;;;5088652;28;20034;-74
2022/11/09 06:36:40;;;;;;;40.67;17.27;;;;;;;;;;5092595;28;20015;-75
2022/11/09 06:39:07;;;;;;;41.83;16.53;;;;;;;;;;5104984;28;20619;-74
2022/11/09 06:41:33;;;;;;;47.92;18.20;;;;;;;;;;5083997;28;20032;-75
2022/11/09 06:43:58;;;;;;;42.28;17.27;;;;;;;;;;5109773;28;20016;-74
2022/11/09 06:46:23;;;;;;;47.77;18.33;;;;;;;;;;5088771;28;20488;-75
2022/11/09 06:48:48;;;;;;;46.97;18.10;;;;;;;;;;5092984;28;20276;-74
2022/11/09 06:51:14;;;;;;;46.03;18.40;;;;;;;;;;5081425;28;20034;-75
2022/11/09 06:53:40;;;;;;;45.33;18.60;;;;;;;;;;5099731;28;20279;-74
2022/11/09 06:56:05;;;;;;;47.25;18.42;;;;;;;;;;5100082;28;20019;-74
2022/11/09 06:58:31;;;;;;;53.75;18.30;;;;;;;;;;5097871;28;20057;-74
2022/11/09 07:00:57;;;;;;;44.97;18.52;;;;;;;;;;5111360;28;20019;-75
2022/11/09 07:03:22;;;;;;;44.05;18.20;;;;;;;;;;5115662;28;20046;-74
2022/11/09 07:05:49;;;;;;;43.92;18.88;;;;;;;;;;5113461;28;20026;-75
2022/11/09 07:08:14;;;;;;;49.13;18.77;;;;;;;;;;5107780;28;20028;-75
2022/11/09 07:10:40;;;;;;;49.17;19.88;;;;;;;;;;5101456;28;20027;-75
2022/11/09 07:13:05;;;;;;;47.03;19.88;;;;;;;;;;5110590;28;20051;-73
2022/11/09 07:15:31;;;;;;;47.10;19.17;;;;;;;;;;5105235;28;20388;-72
2022/11/09 07:17:58;;;;;;;53.22;19.48;;;;;;;;;;5081844;28;20024;-75
2022/11/09 07:20:23;;;;;;;51.63;20.27;;;;;;;;;;5103857;28;20034;-75
2022/11/09 07:22:49;;;;;;;55.87;20.90;;;;;;;;;;5101167;28;20103;-75
2022/11/09 07:25:14;;;;;;;55.33;20.52;;;;;;;;;;5095633;28;20032;-74
2022/11/09 07:27:40;;;;;;;56.58;21.80;;;;;;;;;;5098293;27;20023;-75
2022/11/09 07:30:06;;;;;;;57.53;21.05;;;;;;;;;;5110448;27;20035;-75
2022/11/09 07:32:32;;;;;;;63.40;23.73;;;;;;;;;;5107142;27;20031;-74
2022/11/09 07:34:57;;;;;;;68.32;24.27;;;;;;;;;;5107122;27;20054;-75
2022/11/09 07:37:23;;;;;;;72.97;24.00;;;;;;;;;;5105714;27;20099;-75
2022/11/09 07:39:48;;;;;;;74.97;25.33;;;;;;;;;;5103742;27;20134;-76
2022/11/09 07:42:13;;;;;;;80.40;26.30;;;;;;;;;;5105487;28;20024;-75
2022/11/09 07:44:38;;;;;;;76.05;25.52;;;;;;;;;;5105115;27;20291;-75
2022/11/09 07:47:04;;;;;;;82.73;26.30;;;;;;;;;;5106144;28;20131;-76
2022/11/09 07:49:29;;;;;;;92.77;29.87;;;;;;;;;;5091975;27;20154;-76
2022/11/09 07:51:54;;;;;;;108.80;35.57;;;;;;;;;;5093959;28;20818;-76
2022/11/09 07:54:19;;;;;;;108.10;32.73;;;;;;;;;;5092320;28;20268;-75
2022/11/09 07:56:45;;;;;;;108.90;31.50;;;;;;;;;;5107290;27;20023;-75
2022/11/09 07:59:10;;;;;;;108.07;31.17;;;;;;;;;;5113218;27;20102;-75
2022/11/09 08:01:35;;;;;;;116.10;34.20;;;;;;;;;;5092451;28;20271;-75
2022/11/09 08:04:01;;;;;;;134.48;40.03;;;;;;;;;;5108016;27;20043;-74
2022/11/09 08:06:26;;;;;;;155.25;49.22;;;;;;;;;;5100846;28;20024;-75
2022/11/09 08:08:55;;;;;;;142.43;40.33;;;;;;;;;;5107304;27;20393;-75
2022/11/09 08:11:20;;;;;;;130.87;40.97;;;;;;;;;;5100575;27;20051;-74
2022/11/09 08:13:46;;;;;;;125.15;36.53;;;;;;;;;;5105457;27;20044;-74
2022/11/09 08:16:11;;;;;;;125.00;36.03;;;;;;;;;;5102497;27;20024;-78
2022/11/09 08:18:36;;;;;;;122.25;34.58;;;;;;;;;;5092623;28;20892;-79
2022/11/09 08:21:02;;;;;;;110.90;32.67;;;;;;;;;;5092523;28;20038;-78
2022/11/09 08:23:27;;;;;;;117.10;33.67;;;;;;;;;;5103499;27;20094;-79
2022/11/09 08:25:52;;;;;;;109.13;31.95;;;;;;;;;;5092401;28;20024;-77
2022/11/09 08:28:18;;;;;;;115.13;37.93;;;;;;;;;;5084221;28;20115;-78
2022/11/09 08:30:44;;;;;;;97.70;30.25;;;;;;;;;;5114019;27;20042;-77
2022/11/09 08:33:09;;;;;;;92.93;30.27;;;;;;;;;;5101162;27;20390;-78
2022/11/09 08:35:35;;;;;;;80.72;28.15;;;;;;;;;;5083338;28;20495;-79
2022/11/09 08:38:01;;;;;;;84.80;29.17;;;;;;;;;;5087396;27;20020;-77
2022/11/09 08:40:27;;;;;;;80.22;28.58;;;;;;;;;;5086503;28;20274;-78
2022/11/09 08:42:52;;;;;;;74.80;28.10;;;;;;;;;;5084141;27;20385;-76
2022/11/09 08:45:18;;;;;;;70.68;28.38;;;;;;;;;;5107869;27;20024;-77
2022/11/09 08:47:44;;;;;;;71.05;27.67;;;;;;;;;;5089708;27;20537;-78
2022/11/09 08:50:10;;;;;;;70.30;29.05;;;;;;;;;;5111765;27;20069;-77
2022/11/09 08:52:35;;;;;;;65.35;29.13;;;;;;;;;;5110152;27;20499;-78
2022/11/09 08:55:01;;;;;;;57.97;26.42;;;;;;;;;;5108854;27;20031;-78
2022/11/09 08:57:26;;;;;;;55.05;24.88;;;;;;;;;;5087518;27;20122;-78
2022/11/09 08:59:51;;;;;;;41.20;22.02;;;;;;;;;;5086786;28;20477;-75
2022/11/09 09:02:17;;;;;;;45.53;22.97;;;;;;;;;;5103033;27;20055;-76
2022/11/09 09:04:42;;;;;;;46.53;23.67;;;;;;;;;;5104772;27;20402;-76
2022/11/09 09:07:08;;;;;;;43.85;20.60;;;;;;;;;;5100628;27;20073;-76
2022/11/09 09:09:33;;;;;;;36.13;20.10;;;;;;;;;;5112117;27;20487;-75
2022/11/09 09:11:59;;;;;;;37.08;18.83;;;;;;;;;;5100017;27;20024;-76
2022/11/09 09:14:24;;;;;;;37.55;19.30;;;;;;;;;;5106388;27;20557;-76
2022/11/09 09:16:49;;;;;;;34.35;18.80;;;;;;;;;;5076619;28;20027;-75
2022/11/09 09:19:15;;;;;;;33.53;18.70;;;;;;;;;;5085457;28;20031;-76
2022/11/09 09:21:40;;;;;;;33.03;18.35;;;;;;;;;;5102279;27;20145;-74
2022/11/09 09:24:05;;;;;;;36.78;19.90;;;;;;;;;;5092154;28;20104;-75
2022/11/09 09:26:31;;;;;;;33.78;18.88;;;;;;;;;;5090061;28;20112;-75
2022/11/09 09:28:56;;;;;;;32.53;18.83;;;;;;;;;;5093456;28;20373;-73
2022/11/09 09:31:21;;;;;;;30.63;17.25;;;;;;;10.97;nan;101112.63;5108494;27;20290;-76
2022/11/09 09:33:47;;;;;;;33.05;18.63;;;;;;;;;;5089182;28;20030;-75
2022/11/09 09:36:16;;;;;;;32.85;18.92;;;;;;;;;;5110050;27;20042;-74
2022/11/09 09:38:42;;;;;;;31.02;18.50;;;;;;;;;;5099429;27;20102;-74
2022/11/09 09:41:11;;;;;;;34.30;18.60;;;;;;;;;;5102044;27;20110;-74
2022/11/09 09:43:40;;;;;;;35.78;19.20;;;;;;;;;;5104661;27;20473;-74
2022/11/09 09:46:10;;;;;;;33.42;18.90;;;;;;;;;;5090535;28;20031;-74
2022/11/09 09:48:38;;;;;;;34.35;19.27;;;;;;;;;;5087828;28;20504;-74
2022/11/09 09:51:22;;;;;;;35.00;19.83;;;;;;;;;;5088386;28;20073;-74
2022/11/09 09:53:52;;;;;;;30.13;17.38;;;;;;;;;;5080629;28;20103;-74
2022/11/09 09:56:19;;;;;;;35.10;18.55;;;;;;;;;;5104507;27;20041;-74
2022/11/09 09:58:48;;;;;;;30.90;18.85;;;;;;;;;;5111553;27;20020;-77
2022/11/09 10:01:15;;;;;;;35.10;19.03;;;;;;;;;;5106913;28;20027;-76
2022/11/09 10:03:40;;;;;;;30.98;18.55;;;;;;;;;;5085904;28;20106;-77
2022/11/09 10:06:28;;;;;;;34.80;17.67;;;;;;;;;;5107206;27;20542;-77
2022/11/09 10:09:12;;;;;;;32.47;18.23;;;;;;;;;;5105633;28;20024;-77
2022/11/09 10:11:52;;;;;;;30.38;17.50;;;;;;;;;;5099647;28;20393;-77
2022/11/09 10:14:24;;;;;;;27.58;16.40;;;;;;;;;;5100351;27;20040;-77
2022/11/09 10:16:58;;;;;;;27.85;16.48;;;;;;;;;;5086234;28;20061;-77
2022/11/09 10:19:29;;;;;;;24.17;14.70;;;;;;;;;;5092005;28;20028;-77
2022/11/09 10:22:01;;;;;;;26.95;14.73;;;;;;;;;;5087114;28;20023;-74
2022/11/09 10:24:26;;;;;;;24.85;15.70;;;;;;;;;;5089382;28;20477;-74
2022/11/09 10:26:53;;;;;;;27.40;15.40;;;;;;;;;;5116289;28;20031;-77
2022/11/09 10:29:19;;;;;;;22.92;14.48;;;;;;;;;;5112294;28;20032;-76
2022/11/09 10:31:45;;;;;;;25.35;14.93;;;;;;;;;;5103884;28;20027;-76
2022/11/09 10:34:18;;;;;;;24.45;15.23;;;;;;;;;;5087024;28;20030;-76
2022/11/09 10:36:48;;;;;;;25.10;15.25;;;;;;;;;;5113240;28;20026;-76
2022/11/09 10:39:14;;;;;;;24.27;14.98;;;;;;;;;;5087224;28;20027;-74
2022/11/09 10:41:43;;;;;;;26.85;14.70;;;;;;;;;;5108864;28;20050;-76
2022/11/09 10:44:16;;;;;;;29.03;15.23;;;;;;;;;;5088255;28;20020;-75
2022/11/09 10:47:00;;;;;;;23.52;14.82;;;;;;;;;;5119708;28;20035;-75
2022/11/09 10:49:25;;;;;;;25.63;15.60;;;;;;;;;;5110726;28;20020;-76
2022/11/09 10:51:51;;;;;;;23.90;14.87;;;;;;;;;;5108453;28;20548;-75
2022/11/09 10:54:20;;;;;;;24.27;15.23;;;;;;;;;;5106821;28;20054;-76
2022/11/09 10:56:47;;;;;;;22.63;14.43;;;;;;;;;;5108782;28;20028;-73
2022/11/09 10:59:31;;;;;;;24.23;14.77;;;;;;;;;;5088934;28;20023;-76
2022/11/09 11:01:57;;;;;;;24.75;14.23;;;;;;;14.80;nan;101051.88;5106799;28;20023;-76
2022/11/09 11:04:23;;;;;;;26.45;16.00;;;;;;;;;;5113655;27;20030;-72
2022/11/09 11:06:48;;;;;;;24.45;15.05;;;;;;;;;;5106443;27;20105;-76
2022/11/09 11:09:15;;;;;;;24.90;14.88;;;;;;;;;;5102940;27;20103;-74
2022/11/09 11:11:40;;;;;;;23.75;14.40;;;;;;;;;;5104046;27;20111;-76
2022/11/09 11:14:10;;;;;;;23.33;14.60;;;;;;;;;;5107467;27;20638;-76
2022/11/09 11:16:36;;;;;;;21.40;13.90;;;;;;;;;;5099700;28;20020;-74
2022/11/09 11:19:02;;;;;;;21.83;14.38;;;;;;;;;;5106457;27;20045;-75
2022/11/09 11:21:28;;;;;;;24.35;14.77;;;;;;;;;;5089644;28;20100;-74
2022/11/09 11:24:12;;;;;;;24.83;14.65;;;;;;;;;;5088844;27;20031;-73
2022/11/09 11:26:40;;;;;;;26.02;15.65;;;;;;;;;;5107020;27;20019;-75
2022/11/09 11:29:24;;;;;;;25.73;14.73;;;;;;;;;;5086101;28;20026;-74
2022/11/09 11:31:50;;;;;;;22.05;13.35;;;;;;;;;;5102497;27;20012;-75
2022/11/09 11:34:15;;;;;;;36.10;14.63;;;;;;;;;;5107937;27;20492;-76
2022/11/09 11:36:48;;;;;;;25.00;13.47;;;;;;;;;;5113083;27;20259;-75
2022/11/09 11:39:32;;;;;;;20.88;13.52;;;;;;;;;;5092615;28;20500;-75
2022/11/09 11:42:05;;;;;;;21.33;13.93;;;;;;;;;;5098800;28;20030;-74
2022/11/09 11:44:43;;;;;;;24.58;15.00;;;;;;;;;;5109194;27;20023;-74
2022/11/09 11:47:14;;;;;;;23.85;14.20;;;;;;;;;;5079963;28;20031;-75
2022/11/09 11:50:02;;;;;;;21.63;13.65;;;;;;;;;;5084085;27;20034;-75
2022/11/09 11:52:37;;;;;;;23.55;14.55;;;;;;;;;;5007343;28;20042;-74
2022/11/09 11:55:02;;;;;;;25.35;14.90;;;;;;;;;;4999412;28;20049;-75
2022/11/09 11:57:46;;;;;;;20.67;13.60;;;;;;;;;;4987929;28;20041;-74
2022/11/09 12:00:12;;;;;;;24.73;14.75;;;;;;;;;;4993808;28;20333;-74
2022/11/09 12:02:56;;;;;;;21.90;13.85;;;;;;;;;;4996978;28;20029;-74
2022/11/09 12:05:27;;;;;;;22.02;14.48;;;;;;;;;;5007724;28;20411;-75
2022/11/09 12:07:53;;;;;;;28.23;15.43;;;;;;;;;;5010431;28;20559;-74
2022/11/09 12:10:33;;;;;;;22.23;14.52;;;;;;;;;;5009214;28;20065;-73
2022/11/09 12:13:03;;;;;;;25.55;15.40;;;;;;;;;;5013824;28;20143;-75
2022/11/09 12:15:34;;;;;;;22.60;14.52;;;;;;;;;;4992715;28;20030;-74
2022/11/09 12:18:18;;;;;;;22.35;14.05;;;;;;;;;;5012536;28;20113;-77
2022/11/09 12:20:46;;;;;;;21.70;13.98;;;;;;;;;;4997283;28;20503;-77
2022/11/09 12:23:30;;;;;;;22.40;13.75;;;;;;;;;;5014044;28;20042;-78
2022/11/09 12:26:10;;;;;;;26.48;14.77;;;;;;;;;;5009669;28;20396;-75
2022/11/09 12:28:38;;;;;;;22.20;14.23;;;;;;;;;;5000905;28;20113;-74
2022/11/09 12:31:03;;;;;;;22.20;14.40;;;;;;;;;;5062382;28;20035;-75
2022/11/09 12:33:41;;;;;;;22.93;14.33;;;;;;;;;;5054473;28;20032;-75
2022/11/09 12:36:20;;;;;;;24.40;14.82;;;;;;;;;;5056668;28;20273;-75
2022/11/09 12:38:45;;;;;;;22.13;14.40;;;;;;;;;;5058715;28;20379;-74
2022/11/09 12:41:15;;;;;;;23.83;15.03;;;;;;;;;;5071264;28;20111;-76
2022/11/09 12:43:45;;;;;;;20.77;14.30;;;;;;;;;;5061233;28;20047;-76
2022/11/09 12:46:12;;;;;;;23.33;14.80;;;;;;;;;;5066326;28;20024;-76
2022/11/09 12:48:38;;;;;;;23.45;14.20;;;;;;;;;;5073392;28;20570;-75
2022/11/09 12:51:04;;;;;;;22.60;14.30;;;;;;;;;;5069671;28;20028;-76
2022/11/09 12:53:32;;;;;;;20.42;14.05;;;;;;;;;;5064215;28;20021;-74
2022/11/09 12:56:14;;;;;;;21.10;14.07;;;;;;;;;;5063183;28;20105;-75
2022/11/09 12:58:39;;;;;;;20.02;13.57;;;;;;;;;;5060153;28;20017;-74
2022/11/09 13:01:06;;;;;;;18.85;13.32;;;;;;;;;;5064157;28;20175;-74
2022/11/09 13:03:36;;;;;;;21.77;14.05;;;;;;;;;;5057091;28;20489;-75
2022/11/09 13:06:08;;;;;;;21.25;13.80;;;;;;;;;;5059007;28;20034;-75
2022/11/09 13:08:34;;;;;;;21.33;14.40;;;;;;;;;;5057123;28;20360;-74
2022/11/09 13:11:07;;;;;;;24.45;14.30;;;;;;;;;;5062194;28;20170;-75
2022/11/09 13:13:32;;;;;;;20.65;13.77;;;;;;;;;;5084483;27;20052;-74
2022/11/09 13:16:16;;;;;;;20.95;13.50;;;;;;;;;;5080537;28;20019;-74
2022/11/09 13:18:43;;;;;;;21.00;13.63;;;;;;;;;;5099442;27;20062;-74
2022/11/09 13:21:21;;;;;;;23.05;13.18;;;;;;;;;;5081892;28;20015;-75
2022/11/09 13:23:47;;;;;;;20.33;13.48;;;;;;;;;;5100849;27;20046;-73
2022/11/09 13:26:31;;;;;;;20.90;13.75;;;;;;;;;;5095038;27;20489;-74
2022/11/09 13:29:07;;;;;;;18.98;13.52;;;;;;;;;;5089132;28;20023;-73
2022/11/09 13:31:51;;;;;;;26.73;14.15;;;;;;;;;;5082938;28;20512;-75
2022/11/09 13:34:36;;;;;;;18.25;12.95;;;;;;;;;;5088170;28;20032;-74
2022/11/09 13:37:20;;;;;;;22.92;13.80;;;;;;;;;;5088250;28;20064;-75
2022/11/09 13:39:45;;;;;;;24.80;13.55;;;;;;;;;;5114347;27;20048;-75
2022/11/09 13:42:25;;;;;;;26.65;13.25;;;;;;;;;;5102662;28;20118;-75
2022/11/09 13:44:51;;;;;;;23.65;13.25;;;;;;;;;;5111723;27;20024;-78
2022/11/09 13:47:20;;;;;;;20.00;12.70;;;;;;;;;;5106006;27;20024;-75
2022/11/09 13:49:47;;;;;;;22.10;13.77;;;;;;;;;;5121945;27;20021;-75
2022/11/09 13:52:31;;;;;;;17.05;12.02;;;;;;;;;;5112616;27;20024;-75
2022/11/09 13:54:56;;;;;;;19.17;12.93;;;;;;;;;;5107119;28;20065;-75
2022/11/09 13:57:23;;;;;;;20.05;12.73;;;;;;;;;;5111144;28;20442;-74
2022/11/09 13:59:49;;;;;;;19.85;13.20;;;;;;;17.37;nan;100953.94;5106867;27;20088;-73
2022/11/09 14:02:17;;;;;;;21.55;13.13;;;;;;;;;;5103067;28;20558;-73
2022/11/09 14:04:43;;;;;;;22.05;12.85;;;;;;;;;;5084399;28;20039;-73
2022/11/09 14:07:17;;;;;;;19.17;12.45;;;;;;;;;;5102100;27;20028;-73
2022/11/09 14:10:08;;;;;;;21.23;12.48;;;;;;;;;;5102768;27;20040;-73
2022/11/09 14:12:40;;;;;;;19.10;12.13;;;;;;;;;;5074296;27;20051;-73
2022/11/09 14:15:09;;;;;;;19.70;11.95;;;;;;;;;;5104422;27;20039;-73
2022/11/09 14:17:52;;;;;;;17.85;11.68;;;;;;;;;;5088565;28;20065;-73